createdAt,value
2017-11-20T00:01:52.251Z,99.80
2017-11-20T00:04:18.759Z,99.90
2017-11-20T00:06:45.936Z,99.90
2017-11-20T00:09:13.126Z,99.90
2017-11-20T00:11:39.595Z,99.90
2017-11-20T00:14:06.129Z,99.90
2017-11-20T00:16:32.581Z,99.90
2017-11-20T00:18:59.824Z,99.90
2017-11-20T00:21:26.272Z,99.90
2017-11-20T00:23:52.905Z,99.90
2017-11-20T00:26:19.335Z,99.90
2017-11-20T00:28:45.761Z,99.80
2017-11-20T00:31:12.900Z,99.90
2017-11-20T00:33:39.415Z,99.70
2017-11-20T00:36:05.871Z,99.70
2017-11-20T00:38:33.145Z,99.90
2017-11-20T00:41:00.297Z,99.90
2017-11-20T00:43:27.651Z,99.80
2017-11-20T00:45:54.153Z,99.80
2017-11-20T00:48:20.606Z,99.70
2017-11-20T00:50:47.121Z,99.70
2017-11-20T00:53:13.727Z,99.80
2017-11-20T00:55:40.164Z,99.80
2017-11-20T00:58:07.351Z,99.90
2017-11-20T01:00:34.692Z,99.90
2017-11-20T01:03:01.140Z,99.90
2017-11-20T01:05:27.596Z,99.80
2017-11-20T01:07:54.029Z,99.70
2017-11-20T01:10:20.603Z,99.40
2017-11-20T01:12:47.049Z,99.00
2017-11-20T01:15:13.477Z,98.90
2017-11-20T01:17:40.020Z,98.90
2017-11-20T01:20:07.255Z,99.00
2017-11-20T01:22:33.696Z,98.90
2017-11-20T01:25:00.185Z,98.80
2017-11-20T01:27:26.625Z,98.70
2017-11-20T01:29:53.081Z,98.70
2017-11-20T01:32:19.578Z,98.70
2017-11-20T01:34:46.973Z,98.80
2017-11-20T01:37:13.406Z,98.80
2017-11-20T01:39:40.662Z,99.10
2017-11-20T01:42:07.245Z,99.20
2017-11-20T01:44:34.529Z,99.40
2017-11-20T01:47:01.015Z,99.40
2017-11-20T01:49:27.482Z,99.50
2017-11-20T01:51:54.088Z,99.60
2017-11-20T01:54:21.311Z,99.80
2017-11-20T01:56:47.759Z,99.80
2017-11-20T01:59:14.249Z,99.70
2017-11-20T02:01:40.942Z,99.60
2017-11-20T02:04:08.318Z,99.70
2017-11-20T02:06:34.873Z,99.60
2017-11-20T02:09:02.153Z,99.00
2017-11-20T02:11:28.996Z,99.00
2017-11-20T02:13:56.255Z,98.90
2017-11-20T02:16:22.701Z,98.90
2017-11-20T02:18:49.207Z,98.80
2017-11-20T02:21:15.731Z,99.00
2017-11-20T02:23:44.237Z,99.10
2017-11-20T02:26:11.539Z,99.10
2017-11-20T02:28:38.199Z,99.10
2017-11-20T02:31:04.739Z,99.10
2017-11-20T02:33:32.001Z,99.30
2017-11-20T02:35:58.548Z,99.30
2017-11-20T02:38:25.084Z,99.50
2017-11-20T02:40:51.643Z,99.70
2017-11-20T02:43:18.184Z,99.80
2017-11-20T02:45:44.645Z,99.80
2017-11-20T02:48:11.245Z,99.80
2017-11-20T02:50:37.720Z,99.80
2017-11-20T02:53:05.012Z,99.70
2017-11-20T02:55:31.519Z,99.70
2017-11-20T02:57:58.152Z,99.60
2017-11-20T03:00:24.625Z,99.80
2017-11-20T03:02:51.151Z,99.90
2017-11-20T03:05:17.661Z,99.90
2017-11-20T03:07:44.254Z,99.90
2017-11-20T03:10:11.477Z,99.70
2017-11-20T03:12:37.963Z,99.60
2017-11-20T03:15:04.641Z,99.50
2017-11-20T03:17:31.844Z,99.20
2017-11-20T03:19:58.376Z,99.20
2017-11-20T03:22:25.569Z,99.00
2017-11-20T03:24:52.148Z,99.00
2017-11-20T03:27:18.606Z,99.00
2017-11-20T03:29:45.041Z,99.10
2017-11-20T03:32:11.460Z,99.00
2017-11-20T03:34:38.718Z,99.20
2017-11-20T03:37:05.194Z,99.20
2017-11-20T03:39:32.424Z,99.70
2017-11-20T03:41:58.950Z,99.70
2017-11-20T03:44:25.467Z,99.90
2017-11-20T03:46:52.757Z,99.90
2017-11-20T03:49:19.943Z,99.90
2017-11-20T03:51:47.115Z,99.90
2017-11-20T03:54:13.588Z,99.90
2017-11-20T03:56:40.088Z,99.90
2017-11-20T03:59:06.539Z,99.90
2017-11-20T04:01:33.349Z,99.90
2017-11-20T04:04:00.502Z,99.90
2017-11-20T04:06:27.090Z,99.90
2017-11-20T04:08:53.535Z,99.90
2017-11-20T04:11:20.703Z,99.90
2017-11-20T04:13:49.551Z,99.90
2017-11-20T04:16:16.738Z,99.90
2017-11-20T04:18:43.170Z,99.90
2017-11-20T04:21:09.607Z,99.90
2017-11-20T04:23:36.114Z,99.90
2017-11-20T04:26:02.571Z,99.90
2017-11-20T04:28:29.017Z,99.60
2017-11-20T04:30:55.560Z,99.20
2017-11-20T04:33:22.292Z,99.00
2017-11-20T04:35:49.568Z,98.80
2017-11-20T04:38:16.777Z,98.80
2017-11-20T04:40:43.247Z,98.80
2017-11-20T04:43:09.846Z,98.80
2017-11-20T04:45:37.074Z,98.80
2017-11-20T04:48:03.546Z,98.80
2017-11-20T04:50:30.083Z,98.80
2017-11-20T04:52:56.671Z,98.70
2017-11-20T04:55:23.261Z,98.70
2017-11-20T04:57:49.785Z,98.70
2017-11-20T05:00:17.171Z,99.00
2017-11-20T05:02:44.408Z,99.10
2017-11-20T05:05:10.838Z,99.10
2017-11-20T05:07:37.313Z,99.20
2017-11-20T05:10:03.877Z,99.30
2017-11-20T05:12:30.324Z,99.30
2017-11-20T05:14:56.784Z,99.30
2017-11-20T05:17:23.246Z,99.30
2017-11-20T05:19:51.153Z,99.30
2017-11-20T05:22:17.580Z,99.30
2017-11-20T05:24:44.004Z,99.20
2017-11-20T05:27:11.219Z,99.00
2017-11-20T05:29:37.696Z,99.00
2017-11-20T05:32:04.885Z,98.80
2017-11-20T05:34:31.297Z,99.30
2017-11-20T05:36:57.748Z,98.90
2017-11-20T05:39:24.225Z,99.00
2017-11-20T05:41:50.985Z,99.10
2017-11-20T05:44:17.422Z,99.00
2017-11-20T05:46:43.900Z,99.00
2017-11-20T05:49:10.337Z,99.00
2017-11-20T05:51:36.818Z,99.00
2017-11-20T05:54:03.249Z,98.90
2017-11-20T05:56:29.657Z,98.90
2017-11-20T05:58:56.066Z,99.00
2017-11-20T06:01:22.625Z,99.20
2017-11-20T06:03:49.147Z,98.90
2017-11-20T06:06:16.334Z,98.90
2017-11-20T06:08:42.810Z,98.90
2017-11-20T06:11:09.391Z,98.80
2017-11-20T06:13:35.827Z,98.70
2017-11-20T06:16:02.330Z,98.70
2017-11-20T06:18:29.718Z,98.60
2017-11-20T06:20:56.879Z,98.50
2017-11-20T06:23:24.095Z,98.40
2017-11-20T06:25:50.541Z,98.40
2017-11-20T06:28:16.975Z,98.50
2017-11-20T06:30:44.163Z,98.50
2017-11-20T06:33:10.607Z,98.40
2017-11-20T06:35:37.083Z,98.60
2017-11-20T06:38:04.584Z,98.60
2017-11-20T06:40:31.018Z,98.60
2017-11-20T06:42:57.563Z,98.60
2017-11-20T06:45:24.226Z,98.50
2017-11-20T06:47:50.716Z,98.50
2017-11-20T06:50:17.142Z,98.40
2017-11-20T06:52:44.336Z,98.30
2017-11-20T06:55:10.766Z,98.20
2017-11-20T06:57:37.228Z,98.00
2017-11-20T07:00:03.752Z,97.90
2017-11-20T07:02:30.924Z,98.30
2017-11-20T07:04:57.519Z,98.10
2017-11-20T07:07:23.927Z,98.20
2017-11-20T07:09:50.347Z,98.20
2017-11-20T07:12:16.935Z,98.20
2017-11-20T07:14:43.384Z,98.10
2017-11-20T07:17:10.005Z,98.10
2017-11-20T07:19:36.447Z,97.90
2017-11-20T07:22:03.778Z,97.50
2017-11-20T07:24:30.957Z,97.40
2017-11-20T07:27:00.535Z,97.40
2017-11-20T07:29:39.330Z,97.30
2017-11-20T07:32:05.752Z,97.30
2017-11-20T07:34:44.536Z,97.30
2017-11-20T07:37:23.232Z,97.40
2017-11-20T07:40:02.199Z,97.40
2017-11-20T07:42:28.605Z,97.30
2017-11-20T07:44:55.112Z,97.20
2017-11-20T07:47:22.290Z,97.50
2017-11-20T07:49:48.706Z,97.50
2017-11-20T07:52:15.900Z,97.70
2017-11-20T07:54:43.198Z,97.60
2017-11-20T07:57:09.638Z,97.60
2017-11-20T07:59:36.801Z,97.50
2017-11-20T08:02:03.993Z,97.60
2017-11-20T08:04:30.410Z,97.60
2017-11-20T08:06:57.731Z,97.50
2017-11-20T08:09:24.178Z,97.40
2017-11-20T08:11:50.603Z,97.30
2017-11-20T08:14:17.011Z,97.40
2017-11-20T08:16:43.443Z,97.30
2017-11-20T08:19:10.609Z,97.00
2017-11-20T08:21:37.046Z,97.00
2017-11-20T08:24:03.453Z,96.80
2017-11-20T08:26:29.901Z,96.90
2017-11-20T08:28:56.282Z,97.10
2017-11-20T08:31:22.774Z,97.00
2017-11-20T08:33:49.968Z,97.20
2017-11-20T08:36:16.396Z,97.20
2017-11-20T08:38:42.808Z,97.00
2017-11-20T08:41:09.260Z,97.10
2017-11-20T08:43:35.668Z,97.20
2017-11-20T08:46:02.818Z,97.70
2017-11-20T08:48:29.272Z,97.30
2017-11-20T08:50:55.724Z,97.20
2017-11-20T08:53:22.921Z,97.80
2017-11-20T08:55:49.369Z,97.50
2017-11-20T08:58:15.806Z,97.70
2017-11-20T09:00:42.325Z,97.70
2017-11-20T09:03:08.758Z,97.90
2017-11-20T09:05:36.008Z,98.00
2017-11-20T09:08:02.497Z,98.00
2017-11-20T09:10:29.758Z,98.00
2017-11-20T09:12:56.251Z,98.00
2017-11-20T09:15:23.970Z,97.90
2017-11-20T09:17:50.504Z,97.80
2017-11-20T09:20:17.009Z,97.70
2017-11-20T09:22:43.458Z,97.60
2017-11-20T09:25:11.286Z,97.40
2017-11-20T09:27:37.731Z,97.40
2017-11-20T09:30:04.222Z,97.50
2017-11-20T09:32:30.664Z,97.30
2017-11-20T09:34:57.136Z,97.40
2017-11-20T09:37:23.566Z,97.10
2017-11-20T09:39:50.036Z,97.10
2017-11-20T09:42:16.511Z,97.30
2017-11-20T09:44:42.978Z,97.50
2017-11-20T09:47:09.523Z,97.80
2017-11-20T09:49:36.024Z,98.00
2017-11-20T09:52:03.251Z,98.00
2017-11-20T09:54:29.791Z,98.00
2017-11-20T09:56:56.323Z,98.00
2017-11-20T09:59:23.578Z,98.00
2017-11-20T10:01:51.077Z,98.20
2017-11-20T10:04:18.329Z,98.30
2017-11-20T10:06:44.843Z,98.30
2017-11-20T10:09:11.387Z,98.10
2017-11-20T10:11:37.884Z,98.30
2017-11-20T10:14:04.405Z,98.60
2017-11-20T10:16:30.974Z,98.60
2017-11-20T10:18:57.480Z,98.20
2017-11-20T10:21:24.736Z,98.20
2017-11-20T10:23:51.267Z,98.20
2017-11-20T10:26:17.787Z,98.10
2017-11-20T10:28:45.065Z,98.00
2017-11-20T10:31:12.360Z,98.10
2017-11-20T10:33:38.938Z,98.10
2017-11-20T10:36:05.469Z,98.00
2017-11-20T10:38:31.941Z,97.90
2017-11-20T10:40:58.481Z,97.90
2017-11-20T10:43:25.025Z,98.00
2017-11-20T10:45:52.343Z,98.00
2017-11-20T10:48:18.892Z,98.00
2017-11-20T10:50:45.421Z,97.90
2017-11-20T10:53:11.943Z,97.90
2017-11-20T10:55:38.502Z,97.90
2017-11-20T10:58:04.989Z,97.80
2017-11-20T11:00:32.258Z,97.80
2017-11-20T11:02:59.511Z,97.80
2017-11-20T11:05:27.804Z,97.70
2017-11-20T11:07:54.394Z,97.70
2017-11-20T11:10:21.628Z,97.80
2017-11-20T11:12:48.202Z,97.80
2017-11-20T11:15:14.712Z,97.70
2017-11-20T11:17:41.344Z,97.60
2017-11-20T11:20:07.929Z,97.50
2017-11-20T11:22:34.436Z,97.50
2017-11-20T11:25:00.962Z,97.40
2017-11-20T11:27:27.463Z,97.40
2017-11-20T11:29:54.752Z,97.60
2017-11-20T11:32:21.345Z,97.60
2017-11-20T11:34:47.859Z,97.50
2017-11-20T11:37:15.143Z,97.40
2017-11-20T11:39:41.661Z,97.40
2017-11-20T11:42:08.189Z,97.60
2017-11-20T11:44:34.696Z,97.40
2017-11-20T11:47:01.282Z,97.40
2017-11-20T11:49:27.780Z,97.30
2017-11-20T11:51:54.316Z,97.30
2017-11-20T11:54:20.820Z,97.20
2017-11-20T11:56:47.318Z,97.40
2017-11-20T11:59:13.858Z,97.40
2017-11-20T12:01:40.377Z,97.50
2017-11-20T12:04:06.912Z,97.70
2017-11-20T12:06:34.174Z,97.50
2017-11-20T12:09:00.710Z,97.60
2017-11-20T12:11:27.237Z,97.40
2017-11-20T12:13:53.782Z,97.30
2017-11-20T12:16:20.281Z,97.30
2017-11-20T12:18:46.822Z,97.20
2017-11-20T12:21:13.384Z,97.10
2017-11-20T12:23:40.685Z,97.00
2017-11-20T12:26:07.248Z,96.90
2017-11-20T12:28:34.896Z,96.90
2017-11-20T12:31:02.160Z,96.70
2017-11-20T12:33:29.372Z,96.80
2017-11-20T12:35:55.862Z,96.60
2017-11-20T12:38:22.479Z,96.60
2017-11-20T12:40:48.970Z,96.90
2017-11-20T12:43:15.535Z,97.20
2017-11-20T12:45:42.093Z,97.20
2017-11-20T12:48:08.594Z,97.20
2017-11-20T12:50:35.901Z,97.00
2017-11-20T12:53:02.470Z,96.90
2017-11-20T12:55:29.016Z,97.20
2017-11-20T12:57:55.572Z,96.90
2017-11-20T13:00:22.182Z,97.10
2017-11-20T13:02:48.819Z,97.20
2017-11-20T13:05:15.388Z,97.20
2017-11-20T13:07:41.911Z,97.00
2017-11-20T13:10:08.402Z,96.90
2017-11-20T13:12:34.907Z,96.90
2017-11-20T13:15:02.286Z,97.10
2017-11-20T13:17:29.233Z,97.10
2017-11-20T13:20:02.816Z,97.00
2017-11-20T13:22:29.345Z,97.10
2017-11-20T13:24:55.920Z,97.10
2017-11-20T13:27:22.457Z,96.90
2017-11-20T13:29:48.973Z,96.90
2017-11-20T13:32:16.273Z,97.00
2017-11-20T13:34:43.557Z,97.10
2017-11-20T13:37:10.119Z,97.00
2017-11-20T13:39:37.002Z,97.00
2017-11-20T13:42:03.598Z,97.00
2017-11-20T13:44:30.138Z,96.90
2017-11-20T13:46:56.655Z,96.80
2017-11-20T13:49:23.210Z,96.90
2017-11-20T13:51:49.768Z,97.10
2017-11-20T13:54:16.424Z,97.00
2017-11-20T13:56:43.810Z,97.20
2017-11-20T13:59:10.461Z,97.20
2017-11-20T14:01:37.029Z,97.10
2017-11-20T14:04:04.429Z,96.90
2017-11-20T14:06:31.883Z,97.20
2017-11-20T14:08:59.763Z,97.30
2017-11-20T14:11:26.707Z,97.40
2017-11-20T14:13:53.309Z,97.20
2017-11-20T14:16:20.540Z,97.60
2017-11-20T14:18:47.225Z,97.70
2017-11-20T14:21:14.602Z,97.50
2017-11-20T14:23:44.642Z,97.20
2017-11-20T14:26:12.323Z,97.20
2017-11-20T14:28:39.966Z,97.30
2017-11-20T14:31:07.486Z,97.40
2017-11-20T14:33:34.148Z,97.40
2017-11-20T14:36:00.908Z,97.40
2017-11-20T14:38:27.571Z,97.60
2017-11-20T14:40:54.094Z,97.60
2017-11-20T14:43:21.503Z,97.90
2017-11-20T14:45:48.848Z,97.90
2017-11-20T14:48:23.162Z,98.00
2017-11-20T14:50:49.721Z,98.00
2017-11-20T14:53:26.173Z,98.20
2017-11-20T14:55:52.924Z,98.30
2017-11-20T14:58:19.506Z,98.40
2017-11-20T15:00:46.146Z,98.50
2017-11-20T15:03:12.661Z,98.50
2017-11-20T15:05:40.073Z,98.50
2017-11-20T15:08:06.729Z,98.70
2017-11-20T15:10:34.500Z,98.70
2017-11-20T15:13:01.839Z,98.70
2017-11-20T15:15:28.419Z,98.60
2017-11-20T15:17:55.167Z,98.60
2017-11-20T15:20:21.759Z,98.70
2017-11-20T15:22:49.059Z,98.90
2017-11-20T15:25:15.606Z,98.90
2017-11-20T15:27:42.319Z,98.90
2017-11-20T15:30:08.942Z,99.00
2017-11-20T15:32:36.153Z,98.80
2017-11-20T15:35:02.728Z,98.70
2017-11-20T15:37:29.332Z,98.70
2017-11-20T15:39:55.970Z,98.80
2017-11-20T15:42:23.238Z,99.00
2017-11-20T15:44:50.623Z,99.10
2017-11-20T15:47:17.858Z,99.00
2017-11-20T15:49:44.453Z,99.00
2017-11-20T15:52:11.838Z,99.10
2017-11-20T15:54:39.040Z,99.00
2017-11-20T15:57:06.997Z,99.30
2017-11-20T15:59:33.765Z,99.00
2017-11-20T16:02:00.315Z,99.10
2017-11-20T16:04:26.837Z,99.10
2017-11-20T16:06:54.389Z,99.00
2017-11-20T16:09:20.884Z,99.00
2017-11-20T16:11:47.330Z,99.20
2017-11-20T16:14:14.234Z,99.10
2017-11-20T16:16:40.761Z,99.00
2017-11-20T16:19:07.351Z,98.90
2017-11-20T16:21:34.318Z,98.70
2017-11-20T16:24:00.850Z,98.60
2017-11-20T16:26:28.131Z,98.80
2017-11-20T16:28:55.731Z,98.80
2017-11-20T16:31:22.944Z,98.90
2017-11-20T16:33:49.447Z,98.90
2017-11-20T16:36:17.570Z,98.80
2017-11-20T16:38:44.099Z,98.80
2017-11-20T16:41:11.487Z,98.70
2017-11-20T16:43:38.863Z,99.00
2017-11-20T16:46:06.151Z,98.60
2017-11-20T16:48:33.031Z,98.50
2017-11-20T16:51:00.584Z,98.50
2017-11-20T16:53:28.378Z,98.60
2017-11-20T16:55:56.154Z,98.70
2017-11-20T16:58:36.077Z,98.70
2017-11-20T17:01:03.190Z,98.80
2017-11-20T17:03:31.802Z,98.80
2017-11-20T17:05:58.406Z,98.70
2017-11-20T17:08:25.390Z,98.60
2017-11-20T17:10:51.942Z,98.50
2017-11-20T17:13:19.508Z,98.90
2017-11-20T17:15:47.747Z,98.60
2017-11-20T17:18:14.409Z,98.40
2017-11-20T17:20:40.992Z,98.40
2017-11-20T17:23:07.611Z,98.50
2017-11-20T17:25:35.378Z,98.40
2017-11-20T17:28:01.818Z,98.40
2017-11-20T17:30:28.427Z,98.40
2017-11-20T17:32:55.673Z,98.20
2017-11-20T17:35:22.978Z,98.30
2017-11-20T17:37:50.166Z,98.30
2017-11-20T17:40:16.629Z,98.30
2017-11-20T17:42:43.269Z,98.20
2017-11-20T17:45:09.929Z,98.10
2017-11-20T17:47:36.428Z,98.20
2017-11-20T17:50:02.955Z,98.40
2017-11-20T17:52:29.403Z,98.40
2017-11-20T17:54:55.966Z,98.40
2017-11-20T17:57:22.497Z,98.60
2017-11-20T17:59:49.158Z,98.50
2017-11-20T18:02:16.350Z,98.50
2017-11-20T18:04:43.056Z,98.50
2017-11-20T18:07:09.770Z,98.50
2017-11-20T18:09:36.995Z,98.40
2017-11-20T18:12:03.508Z,98.40
2017-11-20T18:14:30.107Z,98.40
2017-11-20T18:16:57.055Z,99.20
2017-11-20T18:19:23.686Z,99.30
2017-11-20T18:21:50.963Z,98.40
2017-11-20T18:24:19.258Z,98.10
2017-11-20T18:26:46.966Z,98.10
2017-11-20T18:29:13.608Z,98.10
2017-11-20T18:31:40.159Z,98.00
2017-11-20T18:34:08.254Z,97.70
2017-11-20T18:36:35.532Z,97.70
2017-11-20T18:39:03.341Z,97.30
2017-11-20T18:41:30.586Z,97.50
2017-11-20T18:43:58.080Z,97.20
2017-11-20T18:46:25.698Z,97.20
2017-11-20T18:48:52.467Z,97.10
2017-11-20T18:51:19.122Z,96.80
2017-11-20T18:53:45.828Z,96.80
2017-11-20T18:56:13.283Z,96.80
2017-11-20T18:58:40.693Z,96.70
2017-11-20T19:01:19.624Z,96.70
2017-11-20T19:03:58.624Z,96.60
2017-11-20T19:06:51.198Z,96.50
2017-11-20T19:09:21.046Z,96.50
2017-11-20T19:11:49.020Z,96.50
2017-11-20T19:14:15.674Z,96.50
2017-11-20T19:16:44.372Z,96.50
2017-11-20T19:19:11.453Z,96.30
2017-11-20T19:21:39.723Z,96.30
2017-11-20T19:24:08.057Z,96.30
2017-11-20T19:26:36.869Z,96.20
2017-11-20T19:29:05.389Z,96.20
2017-11-20T19:31:34.394Z,96.20
2017-11-20T19:34:03.294Z,96.30
2017-11-20T19:36:31.274Z,96.30
2017-11-20T19:38:59.503Z,96.20
2017-11-20T19:41:27.049Z,96.20
2017-11-20T19:43:56.025Z,96.20
2017-11-20T19:46:24.838Z,96.50
2017-11-20T19:48:52.190Z,96.40
2017-11-20T19:51:21.259Z,96.50
2017-11-20T19:53:48.740Z,96.30
2017-11-20T19:56:17.633Z,96.40
2017-11-20T19:58:47.330Z,96.50
2017-11-20T20:01:17.012Z,96.60
2017-11-20T20:03:46.042Z,96.60
2017-11-20T20:06:14.008Z,96.60
2017-11-20T20:08:41.997Z,96.60
2017-11-20T20:11:09.375Z,96.60
2017-11-20T20:13:46.696Z,96.70
2017-11-20T20:16:36.346Z,96.70
2017-11-20T20:19:04.028Z,96.80
2017-11-20T20:21:30.949Z,96.90
2017-11-20T20:23:57.757Z,97.00
2017-11-20T20:26:25.080Z,97.10
2017-11-20T20:28:52.028Z,97.10
2017-11-20T20:31:20.915Z,97.00
2017-11-20T20:33:47.883Z,97.10
2017-11-20T20:36:16.302Z,97.10
2017-11-20T20:38:42.900Z,97.00
2017-11-20T20:41:10.939Z,97.00
2017-11-20T20:43:38.982Z,97.00
2017-11-20T20:46:07.016Z,97.00
2017-11-20T20:48:34.693Z,97.00
2017-11-20T20:51:01.766Z,97.10
2017-11-20T20:53:29.555Z,97.10
2017-11-20T20:55:56.314Z,97.20
2017-11-20T20:58:23.996Z,97.20
2017-11-20T21:00:50.861Z,97.20
2017-11-20T21:03:19.160Z,97.30
2017-11-20T21:05:46.945Z,97.40
2017-11-20T21:08:18.133Z,97.50
2017-11-20T21:10:51.109Z,97.60
2017-11-20T21:13:18.973Z,97.70
2017-11-20T21:15:46.225Z,97.60
2017-11-20T21:18:12.724Z,98.00
2017-11-20T21:20:39.813Z,97.80
2017-11-20T21:23:06.415Z,97.90
2017-11-20T21:25:32.945Z,97.80
2017-11-20T21:27:59.414Z,97.80
2017-11-20T21:30:26.238Z,97.50
2017-11-20T21:32:52.791Z,97.90
2017-11-20T21:35:20.171Z,98.00
2017-11-20T21:37:49.221Z,98.00
2017-11-20T21:40:17.274Z,98.20
2017-11-20T21:42:43.839Z,98.20
2017-11-20T21:45:10.346Z,98.20
2017-11-20T21:47:37.764Z,98.20
2017-11-20T21:50:05.964Z,98.30
2017-11-20T21:52:32.619Z,98.30
2017-11-20T21:54:59.880Z,98.50
2017-11-20T21:57:26.459Z,98.50
2017-11-20T21:59:54.099Z,98.50
2017-11-20T22:02:20.572Z,98.50
2017-11-20T22:04:47.157Z,98.50
2017-11-20T22:07:15.758Z,98.60
2017-11-20T22:09:43.027Z,98.70
2017-11-20T22:12:09.554Z,98.70
2017-11-20T22:14:36.021Z,99.00
2017-11-20T22:17:02.708Z,98.70
2017-11-20T22:19:30.197Z,98.60
2017-11-20T22:21:57.795Z,98.60
2017-11-20T22:24:24.326Z,98.50
2017-11-20T22:26:50.933Z,98.50
2017-11-20T22:29:17.545Z,98.50
2017-11-20T22:31:44.052Z,98.40
2017-11-20T22:34:10.530Z,98.40
2017-11-20T22:36:37.042Z,98.20
2017-11-20T22:39:03.598Z,98.30
2017-11-20T22:41:30.073Z,98.40
2017-11-20T22:43:56.570Z,98.30
2017-11-20T22:46:24.069Z,98.30
2017-11-20T22:48:50.627Z,98.30
2017-11-20T22:51:17.903Z,98.20
2017-11-20T22:53:45.135Z,98.10
2017-11-20T22:56:11.738Z,98.10
2017-11-20T22:58:38.235Z,98.10
2017-11-20T23:01:04.749Z,98.20
2017-11-20T23:03:31.962Z,98.30
2017-11-20T23:05:58.590Z,98.30
2017-11-20T23:08:25.220Z,98.30
2017-11-20T23:10:51.932Z,98.30
2017-11-20T23:13:18.587Z,98.10
2017-11-20T23:15:45.326Z,98.10
2017-11-20T23:18:12.540Z,97.90
2017-11-20T23:20:39.016Z,97.90
2017-11-20T23:23:05.511Z,97.80
2017-11-20T23:25:33.835Z,97.70
2017-11-20T23:28:00.327Z,97.70
2017-11-20T23:30:26.776Z,97.80
2017-11-20T23:32:53.217Z,97.90
2017-11-20T23:35:19.848Z,98.10
2017-11-20T23:37:46.322Z,98.20
2017-11-20T23:40:12.801Z,98.10
2017-11-20T23:42:39.413Z,98.10
2017-11-20T23:45:06.710Z,97.80
2017-11-20T23:47:33.468Z,97.80
2017-11-20T23:49:59.912Z,97.70
2017-11-20T23:52:26.477Z,97.70
2017-11-20T23:54:52.914Z,97.60
2017-11-20T23:57:20.063Z,97.50
2017-11-20T23:59:46.525Z,97.40
